Time;durP1;ratioP1;P1;durP2;ratioP2;P2;SDS_P1;SDS_P2;PMS_P1;PMS_P2;Temp;Humidity;BMP_temperature;BMP_pressure;BME280_temperature;BME280_humidity;BME280_pressure;Samples;Min_cycle;Max_cycle;Signal;HPM_P1;HPM_P2
2023/08/25 00:01:47;;;;;;;2.33;1.15;;;;;;;;;;5134481;27;20069;-59
2023/08/25 00:04:14;;;;;;;1.45;0.93;;;;;;;;;;5134051;27;20047;-59
2023/08/25 00:06:41;;;;;;;2.28;1.30;;;;;;;;;;5112452;28;20404;-59
2023/08/25 00:09:12;;;;;;;1.80;1.23;;;;;;;;;;5113681;28;20056;-59
2023/08/25 00:11:42;;;;;;;2.42;1.35;;;;;;;;;;5111502;28;20070;-60
2023/08/25 00:14:08;;;;;;;;;;;;;;;;;;5113103;28;20047;-59
2023/08/25 00:16:36;;;;;;;2.75;1.55;;;;;;;;;;5113563;28;19920;-59
2023/08/25 00:19:03;;;;;;;1.90;1.20;;;;;;;;;;5112418;28;20492;-60
2023/08/25 00:21:30;;;;;;;2.85;0.88;;;;;;;;;;5112162;27;20052;-60
2023/08/25 00:23:57;;;;;;;3.05;1.17;;;;;;;;;;5113069;28;20460;-60
2023/08/25 00:26:24;;;;;;;2.42;1.23;;;;;;;;;;5113223;28;20051;-59
2023/08/25 00:28:51;;;;;;;1.77;0.95;;;;;;;;;;5112722;28;20052;-59
2023/08/25 00:31:18;;;;;;;2.53;1.35;;;;;;;;;;5113409;28;20058;-60
2023/08/25 00:33:50;;;;;;;2.35;0.82;;;;;;;;;;5113033;28;20404;-59
2023/08/25 00:36:16;;;;;;;1.40;0.90;;;;;;;;;;5112496;27;20060;-60
2023/08/25 00:38:43;;;;;;;1.02;0.70;;;;;;;;;;5113037;28;20047;-59
2023/08/25 00:41:10;;;;;;;4.38;1.52;;;;;;;;;;5113085;28;20051;-60
2023/08/25 00:43:39;;;;;;;1.63;0.90;;;;;;;;;;5130229;27;20385;-60
2023/08/25 00:46:06;;;;;;;1.47;0.90;;;;;;;;;;5133777;27;20077;-60
2023/08/25 00:48:33;;;;;;;1.70;0.88;;;;;;;;;;5117127;27;20476;-61
2023/08/25 00:51:04;;;;;;;1.45;0.90;;;;;;;;;;5113588;27;20070;-60
2023/08/25 00:53:31;;;;;;;3.00;1.05;;;;;;;;;;5112845;28;20519;-60
2023/08/25 00:56:03;;;;;;;1.45;0.85;;;;;;;;;;5113204;28;20508;-60
2023/08/25 00:58:30;;;;;;;2.85;0.90;;;;;;;;;;5112928;28;20062;-60
2023/08/25 01:01:01;;;;;;;2.35;0.98;;;;;;;;;;5113017;28;20052;-59
2023/08/25 01:03:28;;;;;;;3.83;0.90;;;;;;;;;;5112146;28;20052;-61
2023/08/25 01:05:55;;;;;;;1.95;1.10;;;;;;;;;;5111053;28;20392;-61
2023/08/25 01:08:24;;;;;;;1.38;0.80;;;;;;;;;;5112487;28;20400;-61
2023/08/25 01:10:55;;;;;;;2.65;1.10;;;;;;;;;;5112507;28;20063;-60
2023/08/25 01:13:26;;;;;;;2.78;1.38;;;;;;;;;;5112731;28;20062;-60
2023/08/25 01:15:57;;;;;;;2.88;1.45;;;;;;;;;;5113036;28;20392;-60
2023/08/25 01:18:24;;;;;;;2.08;1.20;;;;;;;;;;5112495;28;20054;-60
2023/08/25 01:20:52;;;;;;;2.95;1.02;;;;;;;;;;5112711;28;20051;-60
2023/08/25 01:23:28;;;;;;;2.65;0.77;;;;;;;;;;5120429;28;20522;-60
2023/08/25 01:26:01;;;;;;;1.42;0.80;;;;;;;;;;5112944;28;20055;-60
2023/08/25 01:28:28;;;;;;;2.55;1.00;;;;;;;;;;5112426;28;20126;-60
2023/08/25 01:30:57;;;;;;;3.35;1.10;;;;;;;;;;5111706;28;20404;-60
2023/08/25 01:33:24;;;;;;;2.35;0.98;;;;;;;;;;5111658;28;20052;-60
2023/08/25 01:35:57;;;;;;;1.35;0.80;;;;;;;;;;5112748;28;20062;-61
2023/08/25 01:38:27;;;;;;;2.47;1.05;;;;;;;;;;5111443;28;20063;-60
2023/08/25 01:40:59;;;;;;;1.60;1.00;;;;;;;;;;5112710;28;20407;-60
2023/08/25 01:43:30;;;;;;;1.35;0.80;;;;;;;;;;5112471;28;20381;-60
2023/08/25 01:45:57;;;;;;;1.35;0.95;;;;;;;;;;5132043;28;20054;-61
2023/08/25 01:48:25;;;;;;;2.22;1.27;;;;;;;;;;5130518;28;20051;-61
2023/08/25 01:50:52;;;;;;;1.40;1.00;;;;;;;;;;5092168;28;20075;-60
2023/08/25 01:53:19;;;;;;;2.35;1.17;;;;;;;;;;5092568;28;20477;-60
2023/08/25 01:55:46;;;;;;;3.58;1.00;;;;;;;;;;5096053;28;20044;-60
2023/08/25 01:58:14;;;;;;;3.25;1.13;;;;;;;;;;5097995;27;20131;-60
2023/08/25 02:00:44;;;;;;;1.92;0.85;;;;;;;;;;5115714;27;20051;-60
2023/08/25 02:03:13;;;;;;;4.80;1.95;;;;;;;;;;5116340;28;20062;-60
2023/08/25 02:05:40;;;;;;;2.88;1.35;;;;;;;;;;5114865;27;20059;-61
2023/08/25 02:08:10;;;;;;;1.85;1.20;;;;;;;;;;5115585;28;20055;-60
2023/08/25 02:10:40;;;;;;;1.60;1.20;;;;;;;;;;5116042;28;20408;-60
2023/08/25 02:13:07;;;;;;;2.20;1.35;;;;;;;;;;5115977;28;20056;-60
2023/08/25 02:15:34;;;;;;;4.70;1.15;;;;;;;;;;5115874;28;20051;-60
2023/08/25 02:18:02;;;;;;;2.38;1.23;;;;;;;;;;5115153;27;20471;-60
2023/08/25 02:20:29;;;;;;;3.33;1.30;;;;;;;;;;5115786;27;20055;-60
2023/08/25 02:22:56;;;;;;;2.83;1.38;;;;;;;;;;5115762;28;20381;-60
2023/08/25 02:25:22;;;;;;;3.00;1.45;;;;;;;;;;5115472;28;20392;-60
2023/08/25 02:27:49;;;;;;;1.50;0.90;;;;;;;;;;5115051;28;20051;-60
2023/08/25 02:30:16;;;;;;;2.10;1.10;;;;;;;;;;5115636;28;20051;-61
2023/08/25 02:32:46;;;;;;;1.67;0.93;;;;;;;;;;5115347;28;20047;-60
2023/08/25 02:35:17;;;;;;;1.88;0.98;;;;;;;;;;5115890;27;20050;-60
2023/08/25 02:37:59;;;;;;;2.78;1.30;;;;;;;;;;5115004;28;20055;-60
2023/08/25 02:40:27;;;;;;;2.17;1.08;;;;;;;;;;5115546;28;20441;-60
2023/08/25 02:42:54;;;;;;;1.33;0.82;;;;;;;;;;5114691;27;20420;-60
2023/08/25 02:45:22;;;;;;;1.77;0.93;;;;;;;;;;5115154;28;20063;-60
2023/08/25 02:47:53;;;;;;;2.70;1.02;;;;;;;;;;5127252;27;20074;-60
2023/08/25 02:50:22;;;;;;;1.85;0.90;;;;;;;;;;5115166;28;20054;-60
2023/08/25 02:52:49;;;;;;;1.58;0.85;;;;;;;;;;5115147;28;20054;-60
2023/08/25 02:55:19;;;;;;;2.05;1.40;;;;;;;;;;5115098;28;20051;-61
2023/08/25 02:57:47;;;;;;;2.00;1.10;;;;;;;;;;5114979;28;20063;-60
2023/08/25 03:00:14;;;;;;;1.70;0.90;;;;;;;;;;5115221;28;20392;-60
2023/08/25 03:02:44;;;;;;;1.83;1.00;;;;;;;;;;5115293;27;20048;-60
2023/08/25 03:05:11;;;;;;;2.10;0.77;;;;;;;;;;5114127;28;20092;-60
2023/08/25 03:07:39;;;;;;;1.70;0.98;;;;;;;;;;5114796;28;20052;-60
2023/08/25 03:10:07;;;;;;;1.38;0.85;;;;;;;;;;5114041;28;20059;-60
2023/08/25 03:12:34;;;;;;;2.20;1.10;;;;;;;;;;5114945;28;20481;-60
2023/08/25 03:15:01;;;;;;;2.20;0.98;;;;;;;;;;5114142;28;20059;-60
2023/08/25 03:17:28;;;;;;;1.83;1.25;;;;;;;;;;5113917;27;20047;-60
2023/08/25 03:19:55;;;;;;;2.38;0.82;;;;;;;;;;5115270;27;20075;-60
2023/08/25 03:22:21;;;;;;;1.80;1.05;;;;;;;;;;5114029;28;20055;-60
2023/08/25 03:24:50;;;;;;;3.20;1.10;;;;;;;;;;5114034;28;20047;-60
2023/08/25 03:27:16;;;;;;;1.63;1.00;;;;;;;;;;5114595;28;20396;-60
2023/08/25 03:29:43;;;;;;;3.88;1.98;;;;;;;;;;5114147;28;20055;-60
2023/08/25 03:32:10;;;;;;;2.03;1.10;;;;;;;;;;5113882;28;20058;-60
2023/08/25 03:34:42;;;;;;;1.50;1.13;;;;;;;;;;5113344;27;20052;-60
2023/08/25 03:37:11;;;;;;;1.65;1.30;;;;;;;;;;5113607;28;20512;-60
2023/08/25 03:39:38;;;;;;;3.13;1.40;;;;;;;;;;5114374;28;20476;-61
2023/08/25 03:42:09;;;;;;;2.25;1.48;;;;;;;;;;5114359;28;20412;-60
2023/08/25 03:44:39;;;;;;;3.38;1.25;;;;;;;;;;5113723;28;20043;-60
2023/08/25 03:47:08;;;;;;;3.05;1.30;;;;;;;;;;5112410;28;20047;-60
2023/08/25 03:49:35;;;;;;;;;;;;;;;;;;5113497;27;20056;-60
2023/08/25 03:52:02;;;;;;;1.45;0.95;;;;;;;;;;5114076;28;19920;-61
2023/08/25 03:54:31;;;;;;;2.58;1.50;;;;;;;;;;5113553;28;20070;-60
2023/08/25 03:56:58;;;;;;;2.53;1.02;;;;;;;;;;5113855;28;20058;-60
2023/08/25 03:59:26;;;;;;;2.05;1.10;;;;;;;;;;5113868;28;20069;-60
2023/08/25 04:01:53;;;;;;;2.10;1.08;;;;;;;;;;5113526;28;20058;-60
2023/08/25 04:04:20;;;;;;;3.15;1.42;;;;;;;;;;5112842;27;20047;-60
2023/08/25 04:06:47;;;;;;;2.28;0.98;;;;;;;;;;5113079;28;20051;-60
2023/08/25 04:09:14;;;;;;;2.63;1.20;;;;;;;;;;5113629;28;20051;-60
2023/08/25 04:11:40;;;;;;;2.00;1.30;;;;;;;;;;5113396;28;20074;-59
2023/08/25 04:14:07;;;;;;;4.65;1.65;;;;;;;;;;5112296;28;20051;-59
2023/08/25 04:16:35;;;;;;;3.50;1.60;;;;;;;;;;5112918;28;20156;-60
2023/08/25 04:19:02;;;;;;;2.53;1.30;;;;;;;;;;5113443;27;20062;-59
2023/08/25 04:21:29;;;;;;;2.72;1.67;;;;;;;;;;5113140;28;20058;-59
2023/08/25 04:23:56;;;;;;;1.40;1.00;;;;;;;;;;5113162;28;20058;-59
2023/08/25 04:26:23;;;;;;;2.75;1.48;;;;;;;;;;5110788;28;20047;-60
2023/08/25 04:28:49;;;;;;;3.35;1.50;;;;;;;;;;5112771;27;20055;-60
2023/08/25 04:31:16;;;;;;;1.88;1.08;;;;;;;;;;5113323;27;20055;-60
2023/08/25 04:33:44;;;;;;;2.95;1.60;;;;;;;;;;5115696;27;20063;-59
2023/08/25 04:36:12;;;;;;;2.03;1.20;;;;;;;;;;5112588;28;20071;-60
2023/08/25 04:38:39;;;;;;;3.60;1.23;;;;;;;;;;5112909;28;20488;-59
2023/08/25 04:41:06;;;;;;;1.67;1.13;;;;;;;;;;5113264;28;20405;-59
2023/08/25 04:43:32;;;;;;;2.55;1.42;;;;;;;;;;5113137;28;20059;-59
2023/08/25 04:45:59;;;;;;;4.05;1.65;;;;;;;;;;5107412;28;20059;-59
2023/08/25 04:48:26;;;;;;;2.83;1.58;;;;;;;;;;5112644;27;20064;-60
2023/08/25 04:50:54;;;;;;;3.00;1.25;;;;;;;;;;5112636;28;20063;-59
2023/08/25 04:53:21;;;;;;;2.65;1.23;;;;;;;;;;5112276;28;20070;-60
2023/08/25 04:55:48;;;;;;;2.75;1.20;;;;;;;;;;5112646;28;20048;-59
2023/08/25 04:58:15;;;;;;;2.17;1.40;;;;;;;;;;5111821;28;20070;-60
2023/08/25 05:00:42;;;;;;;3.78;1.50;;;;;;;;;;5112740;28;20063;-59
2023/08/25 05:03:09;;;;;;;2.97;1.50;;;;;;;;;;5110042;28;20051;-60
2023/08/25 05:05:36;;;;;;;1.45;1.05;;;;;;;;;;5109464;28;20491;-60
2023/08/25 05:08:05;;;;;;;2.38;1.10;;;;;;;;;;5107780;28;20062;-59
2023/08/25 05:10:31;;;;;;;2.10;1.17;;;;;;;;;;5106144;28;20070;-59
2023/08/25 05:12:58;;;;;;;2.00;1.15;;;;;;;;;;5093625;28;20481;-60
2023/08/25 05:15:25;;;;;;;4.03;1.90;;;;;;;;;;5098487;28;20048;-59
2023/08/25 05:17:52;;;;;;;4.32;1.65;;;;;;;;;;5110352;28;20499;-60
2023/08/25 05:20:20;;;;;;;2.40;1.58;;;;;;;;;;5109761;28;20476;-59
2023/08/25 05:22:47;;;;;;;3.13;1.70;;;;;;;;;;5107982;28;20614;-51
2023/08/25 05:25:15;;;;;;;2.58;1.98;;;;;;;;;;5111006;28;20058;-50
2023/08/25 05:27:42;;;;;;;3.75;2.03;;;;;;;;;;5107153;28;20060;-49
2023/08/25 05:30:09;;;;;;;3.45;1.83;;;;;;;;;;5114436;27;20055;-52
2023/08/25 05:32:36;;;;;;;2.53;1.50;;;;;;;;;;5114754;27;20109;-50
2023/08/25 05:35:03;;;;;;;3.25;1.60;;;;;;;;;;5116201;27;20055;-51
2023/08/25 05:37:30;;;;;;;3.03;1.58;;;;;;;;;;5114496;28;20043;-53
2023/08/25 05:39:58;;;;;;;1.83;1.10;;;;;;;;;;5115952;28;20055;-51
2023/08/25 05:42:27;;;;;;;3.15;1.67;;;;;;;;;;5116323;28;20055;-51
2023/08/25 05:44:54;;;;;;;3.33;1.40;;;;;;;;;;5115684;28;20137;-50
2023/08/25 05:47:21;;;;;;;2.00;1.23;;;;;;;;;;5114429;28;20470;-52
2023/08/25 05:49:48;;;;;;;1.98;1.45;;;;;;;;;;5113173;27;20062;-49
2023/08/25 05:52:15;;;;;;;2.92;1.73;;;;;;;;;;5114888;27;20051;-49
2023/08/25 05:54:41;;;;;;;3.38;1.50;;;;;;;;;;5114247;27;20472;-50
2023/08/25 05:57:09;;;;;;;2.90;1.30;;;;;;;;;;5115834;28;20059;-49
2023/08/25 05:59:37;;;;;;;5.57;1.85;;;;;;;;;;5113122;27;20056;-50
2023/08/25 06:02:03;;;;;;;1.90;1.15;;;;;;;;;;5114663;28;20476;-52
2023/08/25 06:04:30;;;;;;;2.50;1.40;;;;;;;;;;5114844;27;20056;-49
2023/08/25 06:06:57;;;;;;;7.78;1.73;;;;;;;;;;5114797;28;20048;-49
2023/08/25 06:09:24;;;;;;;2.70;1.27;;;;;;;;;;5114009;27;20052;-50
2023/08/25 06:11:51;;;;;;;3.00;1.70;;;;;;;;;;5115462;28;20412;-50
2023/08/25 06:14:18;;;;;;;2.97;1.55;;;;;;;;;;5113414;27;20043;-51
2023/08/25 06:16:46;;;;;;;6.57;1.77;;;;;;;;;;5111007;28;20040;-50
2023/08/25 06:19:14;;;;;;;2.53;1.30;;;;;;;;;;5111765;27;20062;-50
2023/08/25 06:21:40;;;;;;;3.42;1.50;;;;;;;;;;5113356;28;20420;-50
2023/08/25 06:24:07;;;;;;;2.63;1.30;;;;;;;;;;5112681;28;20411;-53
2023/08/25 06:26:34;;;;;;;4.25;1.60;;;;;;;;;;5111233;28;20066;-50
2023/08/25 06:29:02;;;;;;;2.60;1.80;;;;;;;;;;5111967;28;20052;-51
2023/08/25 06:31:30;;;;;;;3.85;1.70;;;;;;;;;;5105407;28;20054;-50
2023/08/25 06:33:58;;;;;;;2.85;1.48;;;;;;;;;;5110352;27;20399;-51
2023/08/25 06:36:24;;;;;;;1.75;1.30;;;;;;;;;;5111751;28;20070;-51
2023/08/25 06:38:51;;;;;;;3.35;2.10;;;;;;;;;;5103345;28;20052;-47
2023/08/25 06:41:18;;;;;;;2.38;1.40;;;;;;;;;;5102675;27;20059;-60
2023/08/25 06:43:45;;;;;;;5.03;1.77;;;;;;;;;;5103462;28;20062;-60
2023/08/25 06:46:12;;;;;;;4.03;2.13;;;;;;;;;;5102993;27;20052;-61
2023/08/25 06:48:38;;;;;;;1.50;1.20;;;;;;;;;;5102365;28;20052;-61
2023/08/25 06:51:07;;;;;;;1.95;1.27;;;;;;;;;;5103229;28;20378;-60
2023/08/25 06:53:33;;;;;;;3.47;1.67;;;;;;;;;;5103456;28;20059;-60
2023/08/25 06:56:02;;;;;;;3.70;1.58;;;;;;;;;;5104021;27;20153;-62
2023/08/25 06:58:29;;;;;;;1.70;1.00;;;;;;;;;;5105331;28;20539;-61
2023/08/25 07:00:56;;;;;;;2.30;1.15;;;;;;;;;;5102178;27;20055;-61
2023/08/25 07:03:23;;;;;;;2.72;1.13;;;;;;;;;;5101911;27;20090;-61
2023/08/25 07:05:50;;;;;;;5.00;1.38;;;;;;;;;;5100226;27;20056;-60
2023/08/25 07:08:18;;;;;;;2.72;1.13;;;;;;;;;;5099192;28;20127;-61
2023/08/25 07:10:46;;;;;;;2.47;1.35;;;;;;;;;;5101021;28;20048;-60
2023/08/25 07:13:13;;;;;;;3.40;1.58;;;;;;;;;;5100064;28;20048;-60
2023/08/25 07:15:39;;;;;;;2.63;1.08;;;;;;;;;;5101128;28;20488;-60
2023/08/25 07:18:06;;;;;;;1.85;1.00;;;;;;;;;;5098781;28;20044;-60
2023/08/25 07:20:33;;;;;;;2.50;1.42;;;;;;;;;;5105777;27;20060;-60
2023/08/25 07:23:00;;;;;;;2.78;1.45;;;;;;;;;;5101548;28;20055;-62
2023/08/25 07:25:28;;;;;;;3.05;1.48;;;;;;;;;;5102586;28;20070;-61
2023/08/25 07:27:55;;;;;;;3.50;1.65;;;;;;;;;;5097675;28;20048;-60
2023/08/25 07:30:22;;;;;;;2.92;1.30;;;;;;;;;;5093098;28;20056;-61
2023/08/25 07:32:50;;;;;;;2.72;1.67;;;;;;;;;;5106648;28;20068;-60
2023/08/25 07:35:17;;;;;;;3.28;2.17;;;;;;;;;;5098589;28;20051;-60
2023/08/25 07:37:44;;;;;;;4.55;2.00;;;;;;;;;;5104671;28;20059;-61
2023/08/25 07:40:11;;;;;;;2.72;1.77;;;;;;;;;;5100762;28;20066;-61
2023/08/25 07:42:43;;;;;;;2.13;1.48;;;;;;;;;;5101845;28;20059;-60
2023/08/25 07:45:10;;;;;;;2.95;1.20;;;;;;;;;;5097973;28;20043;-61
2023/08/25 07:47:36;;;;;;;2.92;1.60;;;;;;;;;;5102730;27;20048;-62
2023/08/25 07:50:04;;;;;;;2.33;1.30;;;;;;;;;;5094307;28;20139;-60
2023/08/25 07:52:30;;;;;;;2.65;1.55;;;;;;;;;;5100937;28;20527;-61
2023/08/25 07:54:57;;;;;;;3.45;1.80;;;;;;;;;;5102815;28;20055;-60
2023/08/25 07:57:24;;;;;;;2.10;1.40;;;;;;;;;;5099135;28;20039;-60
2023/08/25 07:59:52;;;;;;;5.00;1.80;;;;;;;;;;5096900;28;20044;-61
2023/08/25 08:02:19;;;;;;;4.72;1.60;;;;;;;;;;5103890;28;20082;-60
2023/08/25 08:04:46;;;;;;;4.10;1.65;;;;;;;;;;5101944;27;20063;-60
2023/08/25 08:07:12;;;;;;;2.83;1.30;;;;;;;;;;5104429;28;20055;-60
2023/08/25 08:09:40;;;;;;;4.10;1.63;;;;;;;;;;5094018;28;20071;-60
2023/08/25 08:12:07;;;;;;;5.22;1.60;;;;;;;;;;5099756;28;20048;-60
2023/08/25 08:14:35;;;;;;;10.77;2.10;;;;;;;;;;5091301;28;20066;-61
2023/08/25 08:17:04;;;;;;;5.82;2.10;;;;;;;;;;5092476;28;20408;-61
2023/08/25 08:19:30;;;;;;;3.30;1.92;;;;;;;;;;5099734;28;20519;-61
2023/08/25 08:21:58;;;;;;;3.25;2.10;;;;;;;;;;5097646;28;20062;-61
2023/08/25 08:24:25;;;;;;;2.63;1.45;;;;;;;;;;5105540;28;20051;-61
2023/08/25 08:26:52;;;;;;;2.67;1.80;;;;;;;;;;5104322;28;20043;-61
2023/08/25 08:29:18;;;;;;;4.90;2.20;;;;;;;;;;5102311;28;20047;-61
2023/08/25 08:31:46;;;;;;;2.55;1.90;;;;;;;;;;5109145;28;20047;-61
2023/08/25 08:34:14;;;;;;;4.20;1.60;;;;;;;;;;5105270;27;20056;-62
2023/08/25 08:36:40;;;;;;;3.30;1.80;;;;;;;;;;5108588;27;20402;-62
2023/08/25 08:39:07;;;;;;;3.58;2.40;;;;;;;;;;5104958;28;20141;-61
2023/08/25 08:41:34;;;;;;;2.75;1.88;;;;;;;;;;5094797;28;20056;-61
2023/08/25 08:44:04;;;;;;;5.40;2.17;;;;;;;;;;5111118;28;20052;-62
2023/08/25 08:46:34;;;;;;;4.85;2.05;;;;;;;;;;5110058;28;20047;-61
2023/08/25 08:49:02;;;;;;;3.85;1.88;;;;;;;;;;5108129;28;20054;-61
2023/08/25 08:51:31;;;;;;;4.70;2.15;;;;;;;;;;5106400;28;20043;-61
2023/08/25 08:53:59;;;;;;;2.80;2.35;;;;;;;;;;5107555;28;20048;-61
2023/08/25 08:56:26;;;;;;;3.90;2.05;;;;;;;;;;5112008;28;20052;-61
2023/08/25 08:58:52;;;;;;;3.30;1.63;;;;;;;;;;5107823;28;20047;-61
2023/08/25 09:01:19;;;;;;;3.33;2.08;;;;;;;;;;5109271;28;20047;-61
2023/08/25 09:03:50;;;;;;;4.72;2.25;;;;;;;;;;5112417;28;20412;-61
2023/08/25 09:06:17;;;;;;;6.90;2.72;;;;;;;;;;5120127;27;20062;-61
2023/08/25 09:08:46;;;;;;;4.60;2.45;;;;;;;;;;5123225;27;20408;-61
2023/08/25 09:11:12;;;;;;;4.78;2.58;;;;;;;;;;5117062;28;20468;-62
2023/08/25 09:13:39;;;;;;;3.20;2.50;;;;;;;;;;5115852;27;20052;-62
2023/08/25 09:16:13;;;;;;;5.18;2.75;;;;;;;;;;5115640;28;20051;-62
2023/08/25 09:18:40;;;;;;;5.43;2.92;;;;;;;;;;5114993;28;20051;-62
2023/08/25 09:21:15;;;;;;;5.13;2.42;;;;;;;;;;5116830;27;20058;-64
2023/08/25 09:23:53;;;;;;;4.55;2.17;;;;;;;;;;5115808;27;20054;-62
2023/08/25 09:26:20;;;;;;;4.78;3.10;;;;;;;;;;5116259;28;20060;-62
2023/08/25 09:28:47;;;;;;;5.20;2.60;;;;;;;;;;5116449;28;20048;-62
2023/08/25 09:31:20;;;;;;;4.40;2.42;;;;;;;;;;5115243;28;20055;-62
2023/08/25 09:33:47;;;;;;;4.85;2.90;;;;;;;;;;5114100;27;20047;-62
2023/08/25 09:36:14;;;;;;;4.30;2.92;;;;;;;;;;5115028;27;20067;-63
2023/08/25 09:38:44;;;;;;;4.75;2.95;;;;;;;;;;5115737;28;20051;-63
2023/08/25 09:41:12;;;;;;;9.05;3.63;;;;;;;;;;5115317;28;20052;-63
2023/08/25 09:43:39;;;;;;;3.97;2.78;;;;;;;;;;5116755;28;20056;-63
2023/08/25 09:46:07;;;;;;;4.80;2.65;;;;;;;;;;5116865;27;20059;-63
2023/08/25 09:48:34;;;;;;;3.63;2.38;;;;;;;;;;5115638;27;20059;-64
2023/08/25 09:51:00;;;;;;;4.68;2.88;;;;;;;;;;5116255;27;20497;-63
2023/08/25 09:53:31;;;;;;;8.15;3.80;;;;;;;;;;5116930;28;20052;-64
2023/08/25 09:56:01;;;;;;;7.38;3.50;;;;;;;;;;5115325;28;20058;-64
2023/08/25 09:58:30;;;;;;;6.10;3.42;;;;;;;;;;5116904;28;20044;-64
2023/08/25 10:00:58;;;;;;;5.75;3.42;;;;;;;;;;5116527;28;20062;-64
2023/08/25 10:03:25;;;;;;;7.15;3.80;;;;;;;;;;5108492;28;20048;-64
2023/08/25 10:05:53;;;;;;;6.22;2.97;;;;;;;;;;5115452;27;20473;-64
2023/08/25 10:08:20;;;;;;;7.07;3.63;;;;;;;;;;5115001;28;20044;-64
2023/08/25 10:10:47;;;;;;;6.15;3.92;;;;;;;;;;5116293;28;20055;-64
2023/08/25 10:13:17;;;;;;;6.43;3.40;;;;;;;;;;5111799;28;20075;-64
2023/08/25 10:15:46;;;;;;;10.23;4.53;;;;;;;;;;5115384;28;20054;-64
2023/08/25 10:18:13;;;;;;;12.27;5.95;;;;;;;;;;5115219;28;20404;-65
2023/08/25 10:20:40;;;;;;;10.20;4.35;;;;;;;;;;5114677;27;20047;-64
2023/08/25 10:23:08;;;;;;;10.73;4.32;;;;;;;;;;5115340;28;20154;-65
2023/08/25 10:25:36;;;;;;;8.60;4.05;;;;;;;;;;5114988;28;20062;-64
2023/08/25 10:28:04;;;;;;;7.25;3.58;;;;;;;;;;5114510;27;20048;-64
2023/08/25 10:30:32;;;;;;;7.05;3.03;;;;;;;;;;5115186;28;20054;-64
2023/08/25 10:33:04;;;;;;;15.55;4.38;;;;;;;;;;5112703;27;20082;-65
2023/08/25 10:35:37;;;;;;;4.97;2.45;;;;;;;;;;5115788;27;20384;-64
2023/08/25 10:38:04;;;;;;;3.40;2.00;;;;;;;;;;5092476;28;20055;-64
2023/08/25 10:40:40;;;;;;;6.47;2.80;;;;;;;;;;5091519;28;20052;-66
2023/08/25 10:43:09;;;;;;;4.72;2.88;;;;;;;;;;5089790;28;20055;-64
2023/08/25 10:45:36;;;;;;;7.35;2.65;;;;;;;;;;5093173;28;20060;-64
2023/08/25 10:48:06;;;;;;;7.00;3.28;;;;;;;;;;5094419;28;20048;-64
2023/08/25 10:50:33;;;;;;;11.57;3.55;;;;;;;;;;5093999;28;20048;-64
2023/08/25 10:53:00;;;;;;;20.33;4.88;;;;;;;;;;5093368;28;20059;-64
2023/08/25 10:55:29;;;;;;;9.90;4.20;;;;;;;;;;5093943;28;20056;-64
2023/08/25 10:58:02;;;;;;;7.68;3.85;;;;;;;;;;5093794;28;20048;-64
2023/08/25 11:00:30;;;;;;;5.43;3.22;;;;;;;;;;5093759;28;20397;-65
2023/08/25 11:02:57;;;;;;;9.30;3.92;;;;;;;;;;5094172;28;20540;-65
2023/08/25 11:05:44;;;;;;;6.93;3.40;;;;;;;;;;5095627;28;20067;-65
2023/08/25 11:08:29;;;;;;;13.10;4.45;;;;;;;;;;5089361;28;20404;-65
2023/08/25 11:11:15;;;;;;;11.07;4.85;;;;;;;;;;5080166;28;20059;-65
2023/08/25 11:13:42;;;;;;;9.63;5.03;;;;;;;;;;5087526;28;20056;-65
2023/08/25 11:16:10;;;;;;;9.82;4.18;;;;;;;;;;5083489;28;20052;-65
2023/08/25 11:18:37;;;;;;;9.23;4.28;;;;;;;;;;5091263;28;20415;-65
2023/08/25 11:21:06;;;;;;;6.95;3.28;;;;;;;;;;5091821;28;20123;-65
2023/08/25 11:23:36;;;;;;;4.53;2.42;;;;;;;;;;5090277;28;20052;-65
2023/08/25 11:26:03;;;;;;;3.78;2.20;;;;;;;;;;5091099;28;20051;-65
2023/08/25 11:28:30;;;;;;;4.13;2.33;;;;;;;;;;5090193;28;20040;-65
2023/08/25 11:30:58;;;;;;;3.42;2.05;;;;;;;;;;5087619;28;20082;-66
2023/08/25 11:33:25;;;;;;;4.47;2.10;;;;;;;;;;5088560;28;20048;-65
2023/08/25 11:35:52;;;;;;;3.55;2.10;;;;;;;;;;5088513;28;20048;-66
2023/08/25 11:38:21;;;;;;;6.32;2.35;;;;;;;;;;5085360;28;20052;-65
2023/08/25 11:40:47;;;;;;;3.78;1.70;;;;;;;;;;5089458;28;20063;-65
2023/08/25 11:43:14;;;;;;;4.55;2.42;;;;;;;;;;5091081;28;20352;-65
2023/08/25 11:45:41;;;;;;;5.95;2.45;;;;;;;;;;5089030;28;20382;-65
2023/08/25 11:48:08;;;;;;;6.93;2.78;;;;;;;;;;5091008;28;20056;-65
2023/08/25 11:50:35;;;;;;;3.45;1.88;;;;;;;;;;5090655;28;20063;-65
2023/08/25 11:53:03;;;;;;;3.67;1.55;;;;;;;;;;5091283;28;20056;-65
2023/08/25 11:55:34;;;;;;;3.53;1.40;;;;;;;;;;5087938;28;20470;-65
2023/08/25 11:58:06;;;;;;;3.58;1.38;;;;;;;;;;5089555;28;20416;-65
2023/08/25 12:00:35;;;;;;;2.25;1.52;;;;;;;;;;5090070;28;20055;-65
2023/08/25 12:03:02;;;;;;;2.67;1.30;;;;;;;;;;5090567;28;20051;-65
2023/08/25 12:05:30;;;;;;;2.55;0.95;;;;;;;;;;5088013;28;20390;-65
2023/08/25 12:07:59;;;;;;;2.33;1.63;;;;;;;;;;5086538;28;20055;-65
2023/08/25 12:10:26;;;;;;;2.03;0.93;;;;;;;;;;5086302;28;20048;-65
2023/08/25 12:12:55;;;;;;;2.67;1.00;;;;;;;;;;5089700;28;20058;-65
2023/08/25 12:15:21;;;;;;;2.38;1.20;;;;;;;;;;5089952;28;20048;-65
2023/08/25 12:17:48;;;;;;;2.30;0.98;;;;;;;;;;5088511;28;20520;-65
2023/08/25 12:20:16;;;;;;;3.55;1.17;;;;;;;;;;5089117;28;20044;-65
2023/08/25 12:22:54;;;;;;;5.20;1.20;;;;;;;;;;5086558;28;20603;-65
2023/08/25 12:25:21;;;;;;;2.58;1.20;;;;;;;;;;5088903;28;20044;-65
2023/08/25 12:27:48;;;;;;;2.17;1.10;;;;;;;;;;5089354;28;20055;-65
2023/08/25 12:30:17;;;;;;;1.67;1.00;;;;;;;;;;5088459;28;20044;-65
2023/08/25 12:32:44;;;;;;;3.15;1.17;;;;;;;;;;5090518;28;20052;-65
2023/08/25 12:35:11;;;;;;;1.95;1.10;;;;;;;;;;5088032;28;20059;-65
2023/08/25 12:37:39;;;;;;;2.08;1.33;;;;;;;;;;5103242;28;20063;-65
2023/08/25 12:40:07;;;;;;;2.70;1.33;;;;;;;;;;5108245;28;20144;-65
2023/08/25 12:42:34;;;;;;;2.45;0.90;;;;;;;;;;5108600;28;20519;-65
2023/08/25 12:45:00;;;;;;;1.85;1.02;;;;;;;;;;5108910;28;20055;-65
2023/08/25 12:47:29;;;;;;;1.40;1.10;;;;;;;;;;5108775;28;20051;-65
2023/08/25 12:49:56;;;;;;;1.50;0.88;;;;;;;;;;5099586;28;20480;-65
2023/08/25 12:52:23;;;;;;;3.25;0.95;;;;;;;;;;5108677;27;20051;-64
2023/08/25 12:54:53;;;;;;;1.17;0.73;;;;;;;;;;5110986;28;20066;-65
2023/08/25 12:57:20;;;;;;;1.52;1.10;;;;;;;;;;5101277;28;20054;-64
2023/08/25 12:59:47;;;;;;;1.23;0.55;;;;;;;;;;5110525;28;20060;-65
2023/08/25 13:02:13;;;;;;;1.83;1.05;;;;;;;;;;5108023;28;20051;-65
2023/08/25 13:04:42;;;;;;;0.95;0.80;;;;;;;;;;5109035;28;20406;-65
2023/08/25 13:07:09;;;;;;;1.27;0.65;;;;;;;;;;5105752;27;20052;-66
2023/08/25 13:09:36;;;;;;;1.60;0.87;;;;;;;;;;5107468;28;20051;-65
2023/08/25 13:12:04;;;;;;;0.95;0.50;;;;;;;;;;5113813;28;20047;-65
2023/08/25 13:14:30;;;;;;;1.23;0.75;;;;;;;;;;5109857;28;20048;-64
2023/08/25 13:16:57;;;;;;;1.10;0.82;;;;;;;;;;5109814;28;20062;-64
2023/08/25 13:19:24;;;;;;;2.55;0.60;;;;;;;;;;5107430;28;20043;-65
2023/08/25 13:21:52;;;;;;;1.92;0.70;;;;;;;;;;5112848;28;20059;-65
2023/08/25 13:24:22;;;;;;;1.27;0.50;;;;;;;;;;5112114;28;20056;-64
2023/08/25 13:26:49;;;;;;;1.15;0.63;;;;;;;;;;5113036;28;20048;-64
2023/08/25 13:29:16;;;;;;;0.90;0.50;;;;;;;;;;5110466;28;20044;-64
2023/08/25 13:31:43;;;;;;;1.10;0.90;;;;;;;;;;5110617;28;20051;-64
2023/08/25 13:34:09;;;;;;;1.20;0.60;;;;;;;;;;5108169;28;20055;-64
2023/08/25 13:36:36;;;;;;;1.70;0.82;;;;;;;;;;5109636;28;20070;-64
2023/08/25 13:39:04;;;;;;;1.02;0.70;;;;;;;;;;5111828;28;20051;-63
2023/08/25 13:41:31;;;;;;;1.98;0.73;;;;;;;;;;5109396;28;20075;-64
2023/08/25 13:43:58;;;;;;;0.95;0.55;;;;;;;;;;5111252;28;20066;-64
2023/08/25 13:46:25;;;;;;;0.88;0.50;;;;;;;;;;5110291;28;20054;-64
2023/08/25 13:48:52;;;;;;;1.10;0.57;;;;;;;;;;5109368;28;20055;-64
2023/08/25 13:51:19;;;;;;;2.67;0.82;;;;;;;;;;5115644;27;20078;-64
2023/08/25 13:53:46;;;;;;;0.90;0.50;;;;;;;;;;5113605;28;20054;-64
2023/08/25 13:56:14;;;;;;;1.27;0.63;;;;;;;;;;5115147;28;20055;-64
2023/08/25 13:58:41;;;;;;;1.60;0.70;;;;;;;;;;5114352;28;20353;-64
2023/08/25 14:01:07;;;;;;;1.30;0.50;;;;;;;;;;5112074;27;20071;-64
2023/08/25 14:03:34;;;;;;;0.93;0.40;;;;;;;;;;5114944;28;20055;-63
2023/08/25 14:06:01;;;;;;;1.70;0.85;;;;;;;;;;5111710;27;20408;-63
2023/08/25 14:08:28;;;;;;;1.60;0.90;;;;;;;;;;5102622;28;20052;-64
2023/08/25 14:10:55;;;;;;;1.88;0.80;;;;;;;;;;5108188;28;20047;-63
2023/08/25 14:13:23;;;;;;;1.27;0.60;;;;;;;;;;5114561;28;20408;-62
2023/08/25 14:15:50;;;;;;;1.23;0.73;;;;;;;;;;5112157;28;20056;-59
2023/08/25 14:18:16;;;;;;;2.58;0.90;;;;;;;;;;5114048;28;20051;-60
2023/08/25 14:20:43;;;;;;;1.67;0.98;;;;;;;;;;5112970;27;20044;-61
2023/08/25 14:23:10;;;;;;;1.50;0.63;;;;;;;;;;5112857;28;20047;-59
2023/08/25 14:25:37;;;;;;;1.30;0.80;;;;;;;;;;5113101;28;20059;-59
2023/08/25 14:28:06;;;;;;;2.60;1.02;;;;;;;;;;5113152;28;20051;-59
2023/08/25 14:30:34;;;;;;;2.25;1.00;;;;;;;;;;5112560;28;20047;-59
2023/08/25 14:33:02;;;;;;;1.75;0.80;;;;;;;;;;5112048;27;20054;-59
2023/08/25 14:35:29;;;;;;;1.05;0.65;;;;;;;;;;5114568;27;20047;-59
2023/08/25 14:37:56;;;;;;;1.55;0.70;;;;;;;;;;5114015;28;20054;-59
2023/08/25 14:40:23;;;;;;;1.35;1.00;;;;;;;;;;5114913;28;20052;-59
2023/08/25 14:42:50;;;;;;;1.48;0.60;;;;;;;;;;5114610;28;20071;-59
2023/08/25 14:45:17;;;;;;;1.42;0.90;;;;;;;;;;5114884;28;20507;-59
2023/08/25 14:47:45;;;;;;;1.73;0.88;;;;;;;;;;5114420;28;20079;-59